Jump to content
AERAS

Чита и ее жители

Recommended Posts

Всех в с наступившим! Удачи, радости, свершения всего задуманного )

Вышел за пивом, поймал кадр, байкальское небо

post-46412-0-90396200-1325753400_thumb.jpg

  • Upvote 1

Share this post


Link to post
Share on other sites

Отличная погодка в Чите

 

UIAA 051200Z 00000MPS 0600 R29/0900VP1500U PRFG VV002 M31/M35 Q1033 NOSIG RMK QBB030 QFE715 29490150

 

post-2468-0-13790400-1325767509.jpg

Share this post


Link to post
Share on other sites

А сегодня жара пипец UIAA 130530Z VRB01MPS 9999 FEW050 SCT200 M13/M21 Q1016 NOSIG RMK QFE704 29490150

 

С новым годом !!! :)

Share this post


Link to post
Share on other sites

Отличная погодка в Чите

 

UIAA 051200Z 00000MPS 0600 R29/0900VP1500U PRFG VV002 M31/M35 Q1033 NOSIG RMK QBB030 QFE715 29490150

 

post-2468-0-13790400-1325767509.jpg

ссылочку скинь

Share this post


Link to post
Share on other sites

Мужики,есть у кого-нибудь фотография летнего дождя??? Только что бы уж не сильно грустная! :)

Share this post


Link to post
Share on other sites

Привет Серега! Качественных фоток нету с дождем, есть с ранним мокрым снегом :)

 

 

фото с Википедии...

А тут не хватает на стоянках наших самолетов из Ватсима :)

Share this post


Link to post
Share on other sites

Серега, классная музыка для отдыха!!!

Послушал треки, понравилось.

 

PS... Помните прошлый год? Как осваивали бобик737? Вот тут есть теперь перевод оригинального дока: http://www.avsim.su/files.phtml?action=comments&id=42773

Share this post


Link to post
Share on other sites

офигенный ролик, зацените скока у него взлетов-посадок за смену

Share this post


Link to post
Share on other sites

Красота! Классный ролик.

офигенный ролик, зацените скока у него взлетов-посадок за смену

Share this post


Link to post
Share on other sites

!!!!

post-41879-0-29823300-1327659500_thumb.jpg

post-41879-0-32524400-1327659502_thumb.jpg

post-41879-0-86677600-1327659503_thumb.jpg

post-41879-0-56908900-1327659506_thumb.jpg

Edited by morpeh

Share this post


Link to post
Share on other sites

Установил 10-ку работает прекрасно разбираюсь с реальной погодой теперь! А это пробный полёт в Иркутск из Читы!!!!

Share this post


Link to post
Share on other sites

Сколько ФПС? какие красивости уже поставил?

Share this post


Link to post
Share on other sites

Сегодня в школу ребенка не повёл

 

post-2468-0-28865600-1327878082.jpg

Edited by Lion_UIAA
  • Upvote 1

Share this post


Link to post
Share on other sites

К нам сегодня приземлился АН-124, будет стоять до завтра. Разгрузка и стоянка на РД4.

А это значит неплохие снимки можно добыть.

Share this post


Link to post
Share on other sites

К нам сегодня приземлился АН-124, будет стоять до завтра. Разгрузка и стоянка на РД4.

А это значит неплохие снимки можно добыть.

 

Сегодня наблюдал его на глиссаде красавец конечно!!!!!!!Вот сколько себя ругаю что не беру фотоаппарат :punish: на работу ведь работаю то под глиссадой :hunter: ............................... :vava:

Edited by morpeh

Share this post


Link to post
Share on other sites

Join the conversation

You can post now and register later. If you have an account, sign in now to post with your account.
Note: Your post will require moderator approval before it will be visible.

Guest
Reply to this topic...

×   Pasted as rich text.   Paste as plain text instead

  Only 75 emoji are allowed.

×   Your link has been automatically embedded.   Display as a link instead

×   Your previous content has been restored.   Clear editor

×   You cannot paste images directly. Upload or insert images from URL.

Loading...

  • Recently Browsing   0 members

    No registered users viewing this page.

×
×
  • Create New...